< < Back
Terminal Aerodrome Forecast


Current Version              Previous Versions:   1  2  3  4  5  6  7  8  9  

Terminal Aerodrome Forecast

211
FTUS42 KILM 231700
TAFILM
TAF
KILM 231731Z 2318/2418 02013G18KT 6SM -RA SCT015 BKN040 OVC080
     FM240000 01014KT 5SM -RA SCT010 BKN035 OVC070
     FM241000 01017G24KT 5SM -RA SCT007 OVC015=

Latest METAR

376
SAUS70 KWBC 232200 RRB
MTRILM
METAR KILM 232153Z 01011KT 10SM OVC028 16/15 A3019 RMK AO2 RAE49 SLP222
P0005 T01610150


USA.gov is the U.S. government's official web portal to all federal, state and local government web resources and services.